sensor_id;sensor_type;location;lat;lon;timestamp;temperature;humidity
21834;DHT22;11079;51.092;3.458;2022-11-24T00:01:09;18.20;99.90
21834;DHT22;11079;51.092;3.458;2022-11-24T00:03:35;18.20;99.90
21834;DHT22;11079;51.092;3.458;2022-11-24T00:06:09;18.20;99.90
21834;DHT22;11079;51.092;3.458;2022-11-24T00:08:36;18.20;99.90
21834;DHT22;11079;51.092;3.458;2022-11-24T00:11:08;18.20;99.90
21834;DHT22;11079;51.092;3.458;2022-11-24T00:13:34;18.20;99.90
21834;DHT22;11079;51.092;3.458;2022-11-24T00:16:12;18.20;99.90
21834;DHT22;11079;51.092;3.458;2022-11-24T00:18:39;18.20;99.90
21834;DHT22;11079;51.092;3.458;2022-11-24T00:21:05;18.20;99.90
21834;DHT22;11079;51.092;3.458;2022-11-24T00:23:31;18.20;99.90
21834;DHT22;11079;51.092;3.458;2022-11-24T00:26:06;18.20;99.90
21834;DHT22;11079;51.092;3.458;2022-11-24T00:28:33;18.20;99.90
21834;DHT22;11079;51.092;3.458;2022-11-24T00:31:00;18.20;99.90
21834;DHT22;11079;51.092;3.458;2022-11-24T00:33:26;18.20;99.90
21834;DHT22;11079;51.092;3.458;2022-11-24T00:35:58;18.20;99.90
21834;DHT22;11079;51.092;3.458;2022-11-24T00:38:25;18.20;99.90
21834;DHT22;11079;51.092;3.458;2022-11-24T00:40:51;18.20;99.90
21834;DHT22;11079;51.092;3.458;2022-11-24T00:43:17;18.20;99.90
21834;DHT22;11079;51.092;3.458;2022-11-24T00:45:43;18.20;99.90
21834;DHT22;11079;51.092;3.458;2022-11-24T00:48:08;18.20;99.90
21834;DHT22;11079;51.092;3.458;2022-11-24T00:50:34;18.20;99.90
21834;DHT22;11079;51.092;3.458;2022-11-24T00:53:00;18.20;99.90
21834;DHT22;11079;51.092;3.458;2022-11-24T00:55:26;18.20;99.90
21834;DHT22;11079;51.092;3.458;2022-11-24T00:57:51;18.20;99.90
21834;DHT22;11079;51.092;3.458;2022-11-24T01:00:17;18.20;99.90
21834;DHT22;11079;51.092;3.458;2022-11-24T01:02:43;18.20;99.90
21834;DHT22;11079;51.092;3.458;2022-11-24T01:05:09;18.20;99.90
21834;DHT22;11079;51.092;3.458;2022-11-24T01:07:35;18.20;99.90
21834;DHT22;11079;51.092;3.458;2022-11-24T01:10:01;18.20;99.90
21834;DHT22;11079;51.092;3.458;2022-11-24T01:12:27;18.20;99.90
21834;DHT22;11079;51.092;3.458;2022-11-24T01:14:53;18.20;99.90
21834;DHT22;11079;51.092;3.458;2022-11-24T01:17:18;18.20;99.90
21834;DHT22;11079;51.092;3.458;2022-11-24T01:19:45;18.20;99.90
21834;DHT22;11079;51.092;3.458;2022-11-24T01:22:13;18.20;99.90
21834;DHT22;11079;51.092;3.458;2022-11-24T01:24:39;18.20;99.90
21834;DHT22;11079;51.092;3.458;2022-11-24T01:27:05;18.20;99.90
21834;DHT22;11079;51.092;3.458;2022-11-24T01:29:32;18.20;99.90
21834;DHT22;11079;51.092;3.458;2022-11-24T01:31:58;18.20;99.90
21834;DHT22;11079;51.092;3.458;2022-11-24T01:34:23;18.20;99.90
21834;DHT22;11079;51.092;3.458;2022-11-24T01:36:49;18.20;99.90
21834;DHT22;11079;51.092;3.458;2022-11-24T01:39:15;18.20;99.90
21834;DHT22;11079;51.092;3.458;2022-11-24T01:41:40;18.20;99.90
21834;DHT22;11079;51.092;3.458;2022-11-24T01:46:48;18.20;99.90
21834;DHT22;11079;51.092;3.458;2022-11-24T01:49:16;18.20;99.90
21834;DHT22;11079;51.092;3.458;2022-11-24T01:51:51;18.20;99.90
21834;DHT22;11079;51.092;3.458;2022-11-24T01:54:23;18.20;99.90
21834;DHT22;11079;51.092;3.458;2022-11-24T01:56:53;18.20;99.90
21834;DHT22;11079;51.092;3.458;2022-11-24T01:59:20;18.20;99.90
21834;DHT22;11079;51.092;3.458;2022-11-24T02:01:47;18.20;99.90
21834;DHT22;11079;51.092;3.458;2022-11-24T02:04:17;18.20;99.90
21834;DHT22;11079;51.092;3.458;2022-11-24T02:06:45;18.20;99.90
21834;DHT22;11079;51.092;3.458;2022-11-24T02:09:27;18.20;99.90
21834;DHT22;11079;51.092;3.458;2022-11-24T02:11:55;18.20;99.90
21834;DHT22;11079;51.092;3.458;2022-11-24T02:14:23;18.20;99.90
21834;DHT22;11079;51.092;3.458;2022-11-24T02:16:49;18.20;99.90
21834;DHT22;11079;51.092;3.458;2022-11-24T02:22:03;18.20;99.90
21834;DHT22;11079;51.092;3.458;2022-11-24T02:24:43;18.20;99.90
21834;DHT22;11079;51.092;3.458;2022-11-24T02:27:10;18.10;99.90
21834;DHT22;11079;51.092;3.458;2022-11-24T02:29:36;18.20;99.90
21834;DHT22;11079;51.092;3.458;2022-11-24T02:32:04;18.20;99.90
21834;DHT22;11079;51.092;3.458;2022-11-24T02:34:31;18.20;99.90
21834;DHT22;11079;51.092;3.458;2022-11-24T02:36:56;18.20;99.90
21834;DHT22;11079;51.092;3.458;2022-11-24T02:39:23;18.20;99.90
21834;DHT22;11079;51.092;3.458;2022-11-24T02:41:55;18.20;99.90
21834;DHT22;11079;51.092;3.458;2022-11-24T02:44:25;18.20;99.90
21834;DHT22;11079;51.092;3.458;2022-11-24T02:47:05;18.20;99.90
21834;DHT22;11079;51.092;3.458;2022-11-24T02:49:31;18.20;99.90
21834;DHT22;11079;51.092;3.458;2022-11-24T02:51:56;18.20;99.90
21834;DHT22;11079;51.092;3.458;2022-11-24T02:54:22;18.20;99.90
21834;DHT22;11079;51.092;3.458;2022-11-24T02:56:48;18.20;99.90
21834;DHT22;11079;51.092;3.458;2022-11-24T02:59:13;18.20;99.90
21834;DHT22;11079;51.092;3.458;2022-11-24T03:01:39;18.20;99.90
21834;DHT22;11079;51.092;3.458;2022-11-24T03:04:05;18.10;99.90
21834;DHT22;11079;51.092;3.458;2022-11-24T03:06:30;18.10;99.90
21834;DHT22;11079;51.092;3.458;2022-11-24T03:08:56;18.20;99.90
21834;DHT22;11079;51.092;3.458;2022-11-24T03:11:21;18.20;99.90
21834;DHT22;11079;51.092;3.458;2022-11-24T03:13:48;18.20;99.90
21834;DHT22;11079;51.092;3.458;2022-11-24T03:16:14;18.20;99.90
21834;DHT22;11079;51.092;3.458;2022-11-24T03:18:39;18.20;99.90
21834;DHT22;11079;51.092;3.458;2022-11-24T03:21:05;18.20;99.90
21834;DHT22;11079;51.092;3.458;2022-11-24T03:23:31;18.20;99.90
21834;DHT22;11079;51.092;3.458;2022-11-24T03:26:06;18.20;99.90
21834;DHT22;11079;51.092;3.458;2022-11-24T03:28:32;18.20;99.90
21834;DHT22;11079;51.092;3.458;2022-11-24T03:30:58;18.20;99.90
21834;DHT22;11079;51.092;3.458;2022-11-24T03:33:23;18.20;99.90
21834;DHT22;11079;51.092;3.458;2022-11-24T03:35:49;18.20;99.90
21834;DHT22;11079;51.092;3.458;2022-11-24T03:38:15;18.20;99.90
21834;DHT22;11079;51.092;3.458;2022-11-24T03:40:40;18.20;99.90
21834;DHT22;11079;51.092;3.458;2022-11-24T03:43:06;18.20;99.90
21834;DHT22;11079;51.092;3.458;2022-11-24T03:45:31;18.20;99.90
21834;DHT22;11079;51.092;3.458;2022-11-24T03:47:57;18.20;99.90
21834;DHT22;11079;51.092;3.458;2022-11-24T03:50:22;18.20;99.90
21834;DHT22;11079;51.092;3.458;2022-11-24T03:52:48;18.20;99.90
21834;DHT22;11079;51.092;3.458;2022-11-24T03:55:14;18.20;99.90
21834;DHT22;11079;51.092;3.458;2022-11-24T03:57:39;18.20;99.90
21834;DHT22;11079;51.092;3.458;2022-11-24T04:00:05;18.20;99.90
21834;DHT22;11079;51.092;3.458;2022-11-24T04:02:31;18.20;99.90
21834;DHT22;11079;51.092;3.458;2022-11-24T04:04:57;18.20;99.90
21834;DHT22;11079;51.092;3.458;2022-11-24T04:07:23;18.20;99.90
21834;DHT22;11079;51.092;3.458;2022-11-24T04:09:49;18.20;99.90
21834;DHT22;11079;51.092;3.458;2022-11-24T04:12:14;18.20;99.90
21834;DHT22;11079;51.092;3.458;2022-11-24T04:14:58;18.20;99.90
21834;DHT22;11079;51.092;3.458;2022-11-24T04:17:24;18.20;99.90
21834;DHT22;11079;51.092;3.458;2022-11-24T04:19:49;18.20;99.90
21834;DHT22;11079;51.092;3.458;2022-11-24T04:22:15;18.20;99.90
21834;DHT22;11079;51.092;3.458;2022-11-24T04:24:41;18.20;99.90
21834;DHT22;11079;51.092;3.458;2022-11-24T04:27:06;18.20;99.90
21834;DHT22;11079;51.092;3.458;2022-11-24T04:29:32;18.20;99.90
21834;DHT22;11079;51.092;3.458;2022-11-24T04:31:58;18.20;99.90
21834;DHT22;11079;51.092;3.458;2022-11-24T04:34:23;18.20;99.90
21834;DHT22;11079;51.092;3.458;2022-11-24T04:36:49;18.20;99.90
21834;DHT22;11079;51.092;3.458;2022-11-24T04:39:14;18.20;99.90
21834;DHT22;11079;51.092;3.458;2022-11-24T04:41:40;18.20;99.90
21834;DHT22;11079;51.092;3.458;2022-11-24T04:44:05;18.20;99.90
21834;DHT22;11079;51.092;3.458;2022-11-24T04:46:31;18.20;99.90
21834;DHT22;11079;51.092;3.458;2022-11-24T04:48:57;18.20;99.90
21834;DHT22;11079;51.092;3.458;2022-11-24T04:51:22;18.20;99.90
21834;DHT22;11079;51.092;3.458;2022-11-24T04:53:48;18.20;99.90
21834;DHT22;11079;51.092;3.458;2022-11-24T04:56:14;18.20;99.90
21834;DHT22;11079;51.092;3.458;2022-11-24T04:58:39;18.20;99.90
21834;DHT22;11079;51.092;3.458;2022-11-24T05:01:06;18.20;99.90
21834;DHT22;11079;51.092;3.458;2022-11-24T05:03:33;18.10;99.90
21834;DHT22;11079;51.092;3.458;2022-11-24T05:05:58;18.20;99.90
21834;DHT22;11079;51.092;3.458;2022-11-24T05:08:24;18.20;99.90
21834;DHT22;11079;51.092;3.458;2022-11-24T05:10:50;18.20;99.90
21834;DHT22;11079;51.092;3.458;2022-11-24T05:13:15;18.20;99.90
21834;DHT22;11079;51.092;3.458;2022-11-24T05:15:41;18.20;99.90
21834;DHT22;11079;51.092;3.458;2022-11-24T05:18:10;18.20;99.90
21834;DHT22;11079;51.092;3.458;2022-11-24T05:20:36;18.20;99.90
21834;DHT22;11079;51.092;3.458;2022-11-24T05:23:06;18.20;99.90
21834;DHT22;11079;51.092;3.458;2022-11-24T05:25:33;18.20;99.90
21834;DHT22;11079;51.092;3.458;2022-11-24T05:28:05;18.20;99.90
21834;DHT22;11079;51.092;3.458;2022-11-24T05:30:38;18.20;99.90
21834;DHT22;11079;51.092;3.458;2022-11-24T05:33:09;18.20;99.90
21834;DHT22;11079;51.092;3.458;2022-11-24T05:35:35;18.20;99.90
21834;DHT22;11079;51.092;3.458;2022-11-24T05:38:02;18.10;99.90
21834;DHT22;11079;51.092;3.458;2022-11-24T05:40:28;18.10;99.90
21834;DHT22;11079;51.092;3.458;2022-11-24T05:42:54;18.20;99.90
21834;DHT22;11079;51.092;3.458;2022-11-24T05:45:20;18.20;99.90
21834;DHT22;11079;51.092;3.458;2022-11-24T05:47:47;18.20;99.90
21834;DHT22;11079;51.092;3.458;2022-11-24T05:50:15;18.10;99.90
21834;DHT22;11079;51.092;3.458;2022-11-24T05:52:41;18.10;99.90
21834;DHT22;11079;51.092;3.458;2022-11-24T05:55:08;18.20;99.90
21834;DHT22;11079;51.092;3.458;2022-11-24T05:57:34;18.10;99.90
21834;DHT22;11079;51.092;3.458;2022-11-24T06:00:02;18.20;99.90
21834;DHT22;11079;51.092;3.458;2022-11-24T06:02:28;18.10;99.90
21834;DHT22;11079;51.092;3.458;2022-11-24T06:04:53;18.20;99.90
21834;DHT22;11079;51.092;3.458;2022-11-24T06:07:19;18.10;99.90
21834;DHT22;11079;51.092;3.458;2022-11-24T06:09:45;18.10;99.90
21834;DHT22;11079;51.092;3.458;2022-11-24T06:12:12;18.10;99.90
21834;DHT22;11079;51.092;3.458;2022-11-24T06:14:37;18.10;99.90
21834;DHT22;11079;51.092;3.458;2022-11-24T06:17:03;18.20;99.90
21834;DHT22;11079;51.092;3.458;2022-11-24T06:19:29;18.10;99.90
21834;DHT22;11079;51.092;3.458;2022-11-24T06:21:55;18.10;99.90
21834;DHT22;11079;51.092;3.458;2022-11-24T06:24:21;18.10;99.90
21834;DHT22;11079;51.092;3.458;2022-11-24T06:26:47;18.20;99.90
21834;DHT22;11079;51.092;3.458;2022-11-24T06:29:13;18.20;99.90
21834;DHT22;11079;51.092;3.458;2022-11-24T06:31:38;18.10;99.90
21834;DHT22;11079;51.092;3.458;2022-11-24T06:34:08;18.10;99.90
21834;DHT22;11079;51.092;3.458;2022-11-24T06:36:36;18.20;99.90
21834;DHT22;11079;51.092;3.458;2022-11-24T06:39:03;18.10;99.90
21834;DHT22;11079;51.092;3.458;2022-11-24T06:41:29;18.10;99.90
21834;DHT22;11079;51.092;3.458;2022-11-24T06:43:54;18.10;99.90
21834;DHT22;11079;51.092;3.458;2022-11-24T06:46:21;18.10;99.90
21834;DHT22;11079;51.092;3.458;2022-11-24T06:48:49;18.10;99.90
21834;DHT22;11079;51.092;3.458;2022-11-24T06:51:15;18.10;99.90
21834;DHT22;11079;51.092;3.458;2022-11-24T06:53:43;18.10;99.90
21834;DHT22;11079;51.092;3.458;2022-11-24T06:56:11;18.10;99.90
21834;DHT22;11079;51.092;3.458;2022-11-24T06:58:48;18.10;99.90
21834;DHT22;11079;51.092;3.458;2022-11-24T07:01:22;18.10;99.90
21834;DHT22;11079;51.092;3.458;2022-11-24T07:03:48;18.10;99.90
21834;DHT22;11079;51.092;3.458;2022-11-24T07:06:15;18.20;99.90
21834;DHT22;11079;51.092;3.458;2022-11-24T07:08:41;18.10;99.90
21834;DHT22;11079;51.092;3.458;2022-11-24T07:11:09;18.10;99.90
21834;DHT22;11079;51.092;3.458;2022-11-24T07:13:35;18.10;99.90
21834;DHT22;11079;51.092;3.458;2022-11-24T07:16:19;18.10;99.90
21834;DHT22;11079;51.092;3.458;2022-11-24T07:18:46;18.10;99.90
21834;DHT22;11079;51.092;3.458;2022-11-24T07:21:12;18.10;99.90
21834;DHT22;11079;51.092;3.458;2022-11-24T07:23:38;18.10;99.90
21834;DHT22;11079;51.092;3.458;2022-11-24T07:26:05;18.10;99.90
21834;DHT22;11079;51.092;3.458;2022-11-24T07:28:32;18.10;99.90
21834;DHT22;11079;51.092;3.458;2022-11-24T07:30:58;18.10;99.90
21834;DHT22;11079;51.092;3.458;2022-11-24T07:33:24;18.10;99.90
21834;DHT22;11079;51.092;3.458;2022-11-24T07:35:53;18.10;99.90
21834;DHT22;11079;51.092;3.458;2022-11-24T07:38:19;18.10;99.90
21834;DHT22;11079;51.092;3.458;2022-11-24T07:40:45;18.10;99.90
21834;DHT22;11079;51.092;3.458;2022-11-24T07:43:10;18.10;99.90
21834;DHT22;11079;51.092;3.458;2022-11-24T07:45:36;18.10;99.90
21834;DHT22;11079;51.092;3.458;2022-11-24T07:48:02;18.10;99.90
21834;DHT22;11079;51.092;3.458;2022-11-24T07:50:28;18.00;99.90
21834;DHT22;11079;51.092;3.458;2022-11-24T07:52:53;18.00;99.90
21834;DHT22;11079;51.092;3.458;2022-11-24T07:55:19;18.00;99.90
21834;DHT22;11079;51.092;3.458;2022-11-24T07:57:44;18.00;99.90
21834;DHT22;11079;51.092;3.458;2022-11-24T08:00:11;18.00;99.90
21834;DHT22;11079;51.092;3.458;2022-11-24T08:02:37;18.00;99.90
21834;DHT22;11079;51.092;3.458;2022-11-24T08:05:03;18.00;99.90
21834;DHT22;11079;51.092;3.458;2022-11-24T08:07:29;18.00;99.90
21834;DHT22;11079;51.092;3.458;2022-11-24T08:09:54;18.00;99.90
21834;DHT22;11079;51.092;3.458;2022-11-24T08:12:20;18.00;99.90
21834;DHT22;11079;51.092;3.458;2022-11-24T08:14:49;18.00;99.90
21834;DHT22;11079;51.092;3.458;2022-11-24T08:17:18;18.10;99.90
21834;DHT22;11079;51.092;3.458;2022-11-24T08:19:44;18.10;99.90
21834;DHT22;11079;51.092;3.458;2022-11-24T08:22:10;18.10;99.90
21834;DHT22;11079;51.092;3.458;2022-11-24T08:24:35;18.10;99.90
21834;DHT22;11079;51.092;3.458;2022-11-24T08:27:01;18.10;99.90
21834;DHT22;11079;51.092;3.458;2022-11-24T08:29:30;18.10;99.90
21834;DHT22;11079;51.092;3.458;2022-11-24T08:31:56;18.10;99.90
21834;DHT22;11079;51.092;3.458;2022-11-24T08:34:22;18.10;99.90
21834;DHT22;11079;51.092;3.458;2022-11-24T08:36:49;18.10;99.90
21834;DHT22;11079;51.092;3.458;2022-11-24T08:39:14;18.10;99.90
21834;DHT22;11079;51.092;3.458;2022-11-24T08:41:40;18.10;99.90
21834;DHT22;11079;51.092;3.458;2022-11-24T08:44:06;18.10;99.90
21834;DHT22;11079;51.092;3.458;2022-11-24T08:46:33;18.20;99.90
21834;DHT22;11079;51.092;3.458;2022-11-24T08:48:59;18.10;99.90
21834;DHT22;11079;51.092;3.458;2022-11-24T08:51:26;18.20;99.90
21834;DHT22;11079;51.092;3.458;2022-11-24T08:53:59;18.10;99.90
21834;DHT22;11079;51.092;3.458;2022-11-24T08:56:26;18.10;99.90
21834;DHT22;11079;51.092;3.458;2022-11-24T08:58:53;18.20;99.90
21834;DHT22;11079;51.092;3.458;2022-11-24T09:01:19;18.20;99.90
21834;DHT22;11079;51.092;3.458;2022-11-24T09:03:47;18.20;99.90
21834;DHT22;11079;51.092;3.458;2022-11-24T09:06:13;18.20;99.90
21834;DHT22;11079;51.092;3.458;2022-11-24T09:08:39;18.20;99.90
21834;DHT22;11079;51.092;3.458;2022-11-24T09:11:08;18.20;99.90
21834;DHT22;11079;51.092;3.458;2022-11-24T09:13:33;18.20;99.90
21834;DHT22;11079;51.092;3.458;2022-11-24T09:16:07;18.20;99.90
21834;DHT22;11079;51.092;3.458;2022-11-24T09:18:33;18.30;99.90
21834;DHT22;11079;51.092;3.458;2022-11-24T09:23:32;18.30;99.90
21834;DHT22;11079;51.092;3.458;2022-11-24T09:26:13;18.30;99.90
21834;DHT22;11079;51.092;3.458;2022-11-24T09:28:39;18.30;99.90
21834;DHT22;11079;51.092;3.458;2022-11-24T09:31:07;18.30;99.90
21834;DHT22;11079;51.092;3.458;2022-11-24T09:33:34;18.40;99.90
21834;DHT22;11079;51.092;3.458;2022-11-24T09:36:00;18.40;99.90
21834;DHT22;11079;51.092;3.458;2022-11-24T09:38:27;18.40;99.90
21834;DHT22;11079;51.092;3.458;2022-11-24T09:40:53;18.40;99.90
21834;DHT22;11079;51.092;3.458;2022-11-24T09:43:37;18.40;99.90
21834;DHT22;11079;51.092;3.458;2022-11-24T09:46:13;18.40;99.90
21834;DHT22;11079;51.092;3.458;2022-11-24T09:48:46;18.40;99.90
21834;DHT22;11079;51.092;3.458;2022-11-24T09:51:14;18.50;99.90
21834;DHT22;11079;51.092;3.458;2022-11-24T09:53:45;18.50;99.90
21834;DHT22;11079;51.092;3.458;2022-11-24T09:56:24;18.50;99.90
21834;DHT22;11079;51.092;3.458;2022-11-24T09:59:02;18.50;99.90
21834;DHT22;11079;51.092;3.458;2022-11-24T10:03:56;18.60;99.90
21834;DHT22;11079;51.092;3.458;2022-11-24T10:06:27;18.60;99.90
21834;DHT22;11079;51.092;3.458;2022-11-24T10:12:19;18.60;99.90
21834;DHT22;11079;51.092;3.458;2022-11-24T10:21:03;18.70;99.90
21834;DHT22;11079;51.092;3.458;2022-11-24T10:26:37;18.70;99.90
21834;DHT22;11079;51.092;3.458;2022-11-24T10:29:19;18.70;99.90
21834;DHT22;11079;51.092;3.458;2022-11-24T10:31:47;18.70;99.90
21834;DHT22;11079;51.092;3.458;2022-11-24T10:34:21;18.70;99.90
21834;DHT22;11079;51.092;3.458;2022-11-24T10:44:45;18.80;99.90
21834;DHT22;11079;51.092;3.458;2022-11-24T10:47:20;18.80;99.90
21834;DHT22;11079;51.092;3.458;2022-11-24T10:52:21;18.90;99.90
21834;DHT22;11079;51.092;3.458;2022-11-24T10:55:00;18.90;99.90
21834;DHT22;11079;51.092;3.458;2022-11-24T10:57:33;18.90;99.90
21834;DHT22;11079;51.092;3.458;2022-11-24T11:00:00;18.90;99.90
21834;DHT22;11079;51.092;3.458;2022-11-24T11:02:27;18.90;99.90
21834;DHT22;11079;51.092;3.458;2022-11-24T11:04:53;18.90;99.90
21834;DHT22;11079;51.092;3.458;2022-11-24T11:07:21;18.90;99.90
21834;DHT22;11079;51.092;3.458;2022-11-24T11:09:48;18.90;99.90
21834;DHT22;11079;51.092;3.458;2022-11-24T11:12:27;18.90;99.90
21834;DHT22;11079;51.092;3.458;2022-11-24T11:14:54;18.90;99.90
21834;DHT22;11079;51.092;3.458;2022-11-24T11:17:33;19.00;99.90
21834;DHT22;11079;51.092;3.458;2022-11-24T11:22:42;19.00;99.90
21834;DHT22;11079;51.092;3.458;2022-11-24T11:27:38;19.00;99.90
21834;DHT22;11079;51.092;3.458;2022-11-24T11:30:24;19.00;99.90
21834;DHT22;11079;51.092;3.458;2022-11-24T11:32:57;19.00;99.90
21834;DHT22;11079;51.092;3.458;2022-11-24T11:35:24;19.00;99.90
21834;DHT22;11079;51.092;3.458;2022-11-24T11:37:53;19.00;99.90
21834;DHT22;11079;51.092;3.458;2022-11-24T11:40:27;19.00;99.90
21834;DHT22;11079;51.092;3.458;2022-11-24T11:43:26;19.00;99.90
21834;DHT22;11079;51.092;3.458;2022-11-24T11:46:12;19.00;99.90
21834;DHT22;11079;51.092;3.458;2022-11-24T11:48:43;19.00;99.90
21834;DHT22;11079;51.092;3.458;2022-11-24T11:51:45;19.00;99.90
21834;DHT22;11079;51.092;3.458;2022-11-24T11:57:45;19.00;99.90
21834;DHT22;11079;51.092;3.458;2022-11-24T12:00:20;19.00;99.90
21834;DHT22;11079;51.092;3.458;2022-11-24T12:06:14;19.00;99.90
21834;DHT22;11079;51.092;3.458;2022-11-24T12:11:59;19.00;99.90
21834;DHT22;11079;51.092;3.458;2022-11-24T12:37:38;19.10;99.90
21834;DHT22;11079;51.092;3.458;2022-11-24T12:48:43;19.10;99.90
21834;DHT22;11079;51.092;3.458;2022-11-24T12:51:18;19.10;99.90
21834;DHT22;11079;51.092;3.458;2022-11-24T12:53:45;19.10;99.90
21834;DHT22;11079;51.092;3.458;2022-11-24T12:56:13;19.10;99.90
21834;DHT22;11079;51.092;3.458;2022-11-24T13:04:11;19.10;99.90
21834;DHT22;11079;51.092;3.458;2022-11-24T13:06:48;19.10;99.90
21834;DHT22;11079;51.092;3.458;2022-11-24T13:09:16;19.10;99.90
21834;DHT22;11079;51.092;3.458;2022-11-24T13:11:47;19.10;99.90
21834;DHT22;11079;51.092;3.458;2022-11-24T13:14:30;19.00;99.90
21834;DHT22;11079;51.092;3.458;2022-11-24T13:19:29;19.00;99.90
21834;DHT22;11079;51.092;3.458;2022-11-24T13:24:34;19.00;99.90
21834;DHT22;11079;51.092;3.458;2022-11-24T13:29:49;19.00;99.90
21834;DHT22;11079;51.092;3.458;2022-11-24T13:53:44;18.90;99.90
21834;DHT22;11079;51.092;3.458;2022-11-24T14:01:22;18.90;99.90
21834;DHT22;11079;51.092;3.458;2022-11-24T14:04:19;18.90;99.90
21834;DHT22;11079;51.092;3.458;2022-11-24T14:07:10;18.90;99.90
21834;DHT22;11079;51.092;3.458;2022-11-24T14:09:49;18.90;99.90
21834;DHT22;11079;51.092;3.458;2022-11-24T14:12:20;18.90;99.90
21834;DHT22;11079;51.092;3.458;2022-11-24T14:14:48;18.90;99.90
21834;DHT22;11079;51.092;3.458;2022-11-24T14:17:22;18.90;99.90
21834;DHT22;11079;51.092;3.458;2022-11-24T14:19:50;18.90;99.90
21834;DHT22;11079;51.092;3.458;2022-11-24T14:22:23;18.90;99.90
21834;DHT22;11079;51.092;3.458;2022-11-24T14:24:56;18.90;99.90
21834;DHT22;11079;51.092;3.458;2022-11-24T14:27:34;18.80;99.90
21834;DHT22;11079;51.092;3.458;2022-11-24T14:30:04;18.80;99.90
21834;DHT22;11079;51.092;3.458;2022-11-24T14:32:54;18.80;99.90
21834;DHT22;11079;51.092;3.458;2022-11-24T14:35:30;18.90;99.90
21834;DHT22;11079;51.092;3.458;2022-11-24T14:37:56;18.80;99.90
21834;DHT22;11079;51.092;3.458;2022-11-24T14:43:30;18.80;99.90
21834;DHT22;11079;51.092;3.458;2022-11-24T14:46:06;18.80;99.90
21834;DHT22;11079;51.092;3.458;2022-11-24T14:48:49;18.80;99.90
21834;DHT22;11079;51.092;3.458;2022-11-24T14:51:22;18.80;99.90
21834;DHT22;11079;51.092;3.458;2022-11-24T14:53:54;18.80;99.90
21834;DHT22;11079;51.092;3.458;2022-11-24T14:56:29;18.80;99.90
21834;DHT22;11079;51.092;3.458;2022-11-24T14:58:57;18.80;99.90
21834;DHT22;11079;51.092;3.458;2022-11-24T15:04:13;18.80;99.90
21834;DHT22;11079;51.092;3.458;2022-11-24T15:06:41;18.80;99.90
21834;DHT22;11079;51.092;3.458;2022-11-24T15:09:25;18.80;99.90
21834;DHT22;11079;51.092;3.458;2022-11-24T15:11:53;18.80;99.90
21834;DHT22;11079;51.092;3.458;2022-11-24T15:14:48;18.80;99.90
21834;DHT22;11079;51.092;3.458;2022-11-24T15:17:23;18.80;99.90
21834;DHT22;11079;51.092;3.458;2022-11-24T15:20:08;18.80;99.90
21834;DHT22;11079;51.092;3.458;2022-11-24T15:22:37;18.80;99.90
21834;DHT22;11079;51.092;3.458;2022-11-24T15:25:27;18.80;99.90
21834;DHT22;11079;51.092;3.458;2022-11-24T15:27:53;18.80;99.90
21834;DHT22;11079;51.092;3.458;2022-11-24T15:30:19;18.70;99.90
21834;DHT22;11079;51.092;3.458;2022-11-24T15:32:55;18.80;99.90
21834;DHT22;11079;51.092;3.458;2022-11-24T15:35:23;18.80;99.90
21834;DHT22;11079;51.092;3.458;2022-11-24T15:37:50;18.80;99.90
21834;DHT22;11079;51.092;3.458;2022-11-24T15:40:16;18.80;99.90
21834;DHT22;11079;51.092;3.458;2022-11-24T15:42:48;18.70;99.90
21834;DHT22;11079;51.092;3.458;2022-11-24T15:45:14;18.80;99.90
21834;DHT22;11079;51.092;3.458;2022-11-24T15:47:40;18.80;99.90
21834;DHT22;11079;51.092;3.458;2022-11-24T15:50:06;18.80;99.90
21834;DHT22;11079;51.092;3.458;2022-11-24T15:52:31;18.80;99.90
21834;DHT22;11079;51.092;3.458;2022-11-24T15:54:57;18.80;99.90
21834;DHT22;11079;51.092;3.458;2022-11-24T15:57:23;18.80;99.90
21834;DHT22;11079;51.092;3.458;2022-11-24T15:59:51;18.80;99.90
21834;DHT22;11079;51.092;3.458;2022-11-24T16:02:17;18.80;99.90
21834;DHT22;11079;51.092;3.458;2022-11-24T16:04:43;18.80;99.90
21834;DHT22;11079;51.092;3.458;2022-11-24T16:07:13;18.80;99.90
21834;DHT22;11079;51.092;3.458;2022-11-24T16:09:39;18.80;99.90
21834;DHT22;11079;51.092;3.458;2022-11-24T16:12:05;18.80;99.90
21834;DHT22;11079;51.092;3.458;2022-11-24T16:14:34;18.80;99.90
21834;DHT22;11079;51.092;3.458;2022-11-24T16:17:00;18.80;99.90
21834;DHT22;11079;51.092;3.458;2022-11-24T16:19:26;18.80;99.90
21834;DHT22;11079;51.092;3.458;2022-11-24T16:21:52;18.80;99.90
21834;DHT22;11079;51.092;3.458;2022-11-24T16:24:17;18.80;99.90
21834;DHT22;11079;51.092;3.458;2022-11-24T16:26:43;18.80;99.90
21834;DHT22;11079;51.092;3.458;2022-11-24T16:29:09;18.80;99.90
21834;DHT22;11079;51.092;3.458;2022-11-24T16:31:37;18.80;99.90
21834;DHT22;11079;51.092;3.458;2022-11-24T16:34:02;18.80;99.90
21834;DHT22;11079;51.092;3.458;2022-11-24T16:36:28;18.80;99.90
21834;DHT22;11079;51.092;3.458;2022-11-24T16:38:54;18.80;99.90
21834;DHT22;11079;51.092;3.458;2022-11-24T16:41:20;18.80;99.90
21834;DHT22;11079;51.092;3.458;2022-11-24T16:43:46;18.80;99.90
21834;DHT22;11079;51.092;3.458;2022-11-24T16:46:20;18.80;99.90
21834;DHT22;11079;51.092;3.458;2022-11-24T16:48:48;18.80;99.90
21834;DHT22;11079;51.092;3.458;2022-11-24T16:51:14;18.80;99.90
21834;DHT22;11079;51.092;3.458;2022-11-24T16:53:40;18.80;99.90
21834;DHT22;11079;51.092;3.458;2022-11-24T16:56:07;18.80;99.90
21834;DHT22;11079;51.092;3.458;2022-11-24T16:58:33;18.80;99.90
21834;DHT22;11079;51.092;3.458;2022-11-24T17:01:09;18.80;99.90
21834;DHT22;11079;51.092;3.458;2022-11-24T17:03:35;18.80;99.90
21834;DHT22;11079;51.092;3.458;2022-11-24T17:06:03;18.80;99.90
21834;DHT22;11079;51.092;3.458;2022-11-24T17:08:33;18.80;99.90
21834;DHT22;11079;51.092;3.458;2022-11-24T17:11:24;18.80;99.90
21834;DHT22;11079;51.092;3.458;2022-11-24T17:13:51;18.80;99.90
21834;DHT22;11079;51.092;3.458;2022-11-24T17:16:19;18.80;99.90
21834;DHT22;11079;51.092;3.458;2022-11-24T17:18:45;18.80;99.90
21834;DHT22;11079;51.092;3.458;2022-11-24T17:21:19;18.80;99.90
21834;DHT22;11079;51.092;3.458;2022-11-24T17:23:45;18.80;99.90
21834;DHT22;11079;51.092;3.458;2022-11-24T17:26:13;18.80;99.90
21834;DHT22;11079;51.092;3.458;2022-11-24T17:28:39;18.80;99.90
21834;DHT22;11079;51.092;3.458;2022-11-24T17:33:38;18.80;99.90
21834;DHT22;11079;51.092;3.458;2022-11-24T17:36:05;18.80;99.90
21834;DHT22;11079;51.092;3.458;2022-11-24T17:38:32;18.80;99.90
21834;DHT22;11079;51.092;3.458;2022-11-24T17:40:58;18.80;99.90
21834;DHT22;11079;51.092;3.458;2022-11-24T17:43:24;18.80;99.90
21834;DHT22;11079;51.092;3.458;2022-11-24T17:45:53;18.80;99.90
21834;DHT22;11079;51.092;3.458;2022-11-24T17:48:19;18.80;99.90